Terminal Aerodrome Forecast
Issued by NWS Cleveland, OH

Home | Current Version | Previous Version | Graphics & Text | Print | Product List | Glossary On
Versions: 1 2 3 4 5 6 7 8 9 10 11 12 13 14 15 16 17 18 19 20 21 22 23 24 25 26
000
FTUS41 KCLE 180900 AAA
TAFYNG
TAF AMD
KYNG 180953Z 1810/1906 29012G20KT P6SM -RA OVC015
     FM181500 29014G20KT P6SM VCSH OVC020
     FM190300 30010KT P6SM OVC025=

USA.gov is the U.S. government's official web portal to all federal, state and local government web resources and services.